createdAt,value
2018-01-29T00:01:33.627Z,12.40
2018-01-29T00:04:00.580Z,12.87
2018-01-29T00:06:27.500Z,13.97
2018-01-29T00:08:53.718Z,14.73
2018-01-29T00:11:19.890Z,10.60
2018-01-29T00:13:46.099Z,11.53
2018-01-29T00:16:13.014Z,8.17
2018-01-29T00:18:39.222Z,8.80
2018-01-29T00:21:05.410Z,9.77
2018-01-29T00:23:32.535Z,9.73
2018-01-29T00:25:58.721Z,11.03
2018-01-29T00:28:24.899Z,9.30
2018-01-29T00:30:51.851Z,11.60
2018-01-29T00:33:18.784Z,17.10
2018-01-29T00:35:45.000Z,11.33
2018-01-29T00:38:11.191Z,11.13
2018-01-29T00:40:37.395Z,12.67
2018-01-29T00:43:03.584Z,10.40
2018-01-29T00:45:29.778Z,15.43
2018-01-29T00:47:55.976Z,15.17
2018-01-29T00:50:22.966Z,15.60
2018-01-29T00:52:49.143Z,17.33
2018-01-29T00:55:16.089Z,9.53
2018-01-29T00:57:43.015Z,7.97
2018-01-29T01:00:09.224Z,8.40
2018-01-29T01:02:35.403Z,8.20
2018-01-29T01:05:02.404Z,10.03
2018-01-29T01:07:28.611Z,9.20
2018-01-29T01:09:54.787Z,10.03
2018-01-29T01:12:21.028Z,9.97
2018-01-29T01:14:47.944Z,11.57
2018-01-29T01:17:14.156Z,9.47
2018-01-29T01:19:40.340Z,12.43
2018-01-29T01:22:06.554Z,11.97
2018-01-29T01:24:33.479Z,9.47
2018-01-29T01:26:59.687Z,10.20
2018-01-29T01:29:25.866Z,15.60
2018-01-29T01:31:52.848Z,12.97
2018-01-29T01:34:19.027Z,8.47
2018-01-29T01:36:46.020Z,8.57
2018-01-29T01:39:12.190Z,10.83
2018-01-29T01:41:38.576Z,12.07
2018-01-29T01:44:04.764Z,9.50
2018-01-29T01:46:31.856Z,11.73
2018-01-29T01:48:58.071Z,8.97
2018-01-29T01:51:24.359Z,5.53
2018-01-29T01:53:50.555Z,9.57
2018-01-29T01:56:16.735Z,9.80
2018-01-29T01:58:43.689Z,6.67
2018-01-29T02:01:10.615Z,6.80
2018-01-29T02:03:36.843Z,7.83
2018-01-29T02:06:03.058Z,10.07
2018-01-29T02:08:29.272Z,10.10
2018-01-29T02:10:55.468Z,9.90
2018-01-29T02:13:21.704Z,4.93
2018-01-29T02:15:48.267Z,7.73
2018-01-29T02:18:15.111Z,4.83
2018-01-29T02:20:41.853Z,16.20
2018-01-29T02:23:09.106Z,5.10
2018-01-29T02:25:35.847Z,6.47
2018-01-29T02:28:02.056Z,6.70
2018-01-29T02:30:28.263Z,6.60
2018-01-29T02:32:54.463Z,9.20
2018-01-29T02:35:20.682Z,6.33
2018-01-29T02:37:46.891Z,7.90
2018-01-29T02:40:13.103Z,4.90
2018-01-29T02:42:39.291Z,4.70
2018-01-29T02:45:06.264Z,5.50
2018-01-29T02:47:32.447Z,5.53
2018-01-29T02:49:58.675Z,5.43
2018-01-29T02:52:25.651Z,6.60
2018-01-29T02:54:51.884Z,6.13
2018-01-29T02:57:18.099Z,7.03
2018-01-29T02:59:45.062Z,5.70
2018-01-29T03:02:11.242Z,4.37
2018-01-29T03:04:37.471Z,9.50
2018-01-29T03:07:03.654Z,6.37
2018-01-29T03:09:29.866Z,9.13
2018-01-29T03:11:56.787Z,5.40
2018-01-29T03:14:22.995Z,5.40
2018-01-29T03:16:49.180Z,4.97
2018-01-29T03:19:15.387Z,7.30
2018-01-29T03:21:42.393Z,6.33
2018-01-29T03:24:08.611Z,4.27
2018-01-29T03:26:34.792Z,3.43
2018-01-29T03:29:01.806Z,6.80
2018-01-29T03:31:27.999Z,4.37
2018-01-29T03:33:54.179Z,9.37
2018-01-29T03:36:20.392Z,6.40
2018-01-29T03:38:46.571Z,6.00
2018-01-29T03:41:12.778Z,5.67
2018-01-29T03:43:39.704Z,4.30
2018-01-29T03:46:07.391Z,4.10
2018-01-29T03:48:34.315Z,5.90
2018-01-29T03:51:01.324Z,7.20
2018-01-29T03:53:27.503Z,7.70
2018-01-29T03:55:54.454Z,6.87
2018-01-29T03:58:21.379Z,7.17
2018-01-29T04:00:47.584Z,5.40
2018-01-29T04:03:13.783Z,5.40
2018-01-29T04:05:39.995Z,6.00
2018-01-29T04:08:06.919Z,7.63
2018-01-29T04:10:33.109Z,3.97
2018-01-29T04:12:59.328Z,4.50
2018-01-29T04:15:25.510Z,5.03
2018-01-29T04:17:52.459Z,6.93
2018-01-29T04:20:19.395Z,4.53
2018-01-29T04:22:45.617Z,4.27
2018-01-29T04:25:11.807Z,4.50
2018-01-29T04:27:38.015Z,3.23
2018-01-29T04:30:04.191Z,3.83
2018-01-29T04:32:30.412Z,5.47
2018-01-29T04:34:56.607Z,4.50
2018-01-29T04:37:22.844Z,3.93
2018-01-29T04:39:49.296Z,2.33
2018-01-29T04:42:15.471Z,4.60
2018-01-29T04:44:42.440Z,4.10
2018-01-29T04:47:08.635Z,4.80
2018-01-29T04:49:34.851Z,2.40
2018-01-29T04:52:01.059Z,2.50
2018-01-29T04:54:27.266Z,4.40
2018-01-29T04:56:53.444Z,2.70
2018-01-29T04:59:19.651Z,4.80
2018-01-29T05:01:45.835Z,3.53
2018-01-29T05:04:12.043Z,3.53
2018-01-29T05:06:38.975Z,3.90
2018-01-29T05:09:05.214Z,4.07
2018-01-29T05:11:32.135Z,5.10
2018-01-29T05:13:58.319Z,2.47
2018-01-29T05:16:24.587Z,3.60
2018-01-29T05:18:50.771Z,4.03
2018-01-29T05:21:16.982Z,1.90
2018-01-29T05:23:43.902Z,3.23
2018-01-29T05:26:10.115Z,2.57
2018-01-29T05:28:36.301Z,2.33
2018-01-29T05:31:02.514Z,5.50
2018-01-29T05:33:29.431Z,1.97
2018-01-29T05:39:09.478Z,1.40
2018-01-29T05:41:35.720Z,1.40
2018-01-29T05:44:01.926Z,1.40
2018-01-29T05:46:28.139Z,1.33
2018-01-29T05:48:54.343Z,1.17
2018-01-29T05:51:21.342Z,1.10
2018-01-29T05:53:47.546Z,1.40
2018-01-29T05:56:13.826Z,1.30
2018-01-29T05:58:40.007Z,1.30
2018-01-29T06:01:06.228Z,2.20
2018-01-29T06:03:32.407Z,1.07
2018-01-29T06:05:58.619Z,1.13
2018-01-29T06:08:24.803Z,1.20
2018-01-29T06:10:51.772Z,1.20
2018-01-29T06:13:17.953Z,1.30
2018-01-29T06:15:44.167Z,1.70
2018-01-29T06:18:10.342Z,2.90
2018-01-29T06:20:36.563Z,1.10
2018-01-29T06:23:03.519Z,1.40
2018-01-29T06:25:29.727Z,0.67
2018-01-29T06:27:56.676Z,1.10
2018-01-29T06:30:23.631Z,1.33
2018-01-29T06:32:50.570Z,1.03
2018-01-29T06:35:17.523Z,1.80
2018-01-29T06:37:43.702Z,1.30
2018-01-29T06:40:09.911Z,1.23
2018-01-29T06:42:36.872Z,0.77
2018-01-29T06:45:03.087Z,1.10
2018-01-29T06:47:29.266Z,1.00
2018-01-29T06:49:56.214Z,1.43
2018-01-29T06:52:23.167Z,1.10
2018-01-29T06:54:50.115Z,1.30
2018-01-29T06:57:17.043Z,0.80
2018-01-29T06:59:44.730Z,1.20
2018-01-29T07:02:11.651Z,1.00
2018-01-29T07:04:37.863Z,0.63
2018-01-29T07:07:04.067Z,0.80
2018-01-29T07:09:30.274Z,0.77
2018-01-29T07:11:56.451Z,1.70
2018-01-29T07:14:22.659Z,1.03
2018-01-29T07:16:48.838Z,0.97
2018-01-29T07:19:15.788Z,1.37
2018-01-29T07:21:42.716Z,1.00
2018-01-29T07:24:08.927Z,0.63
2018-01-29T07:26:35.112Z,2.00
2018-01-29T07:29:01.323Z,0.80
2018-01-29T07:31:27.506Z,2.60
2018-01-29T07:33:53.715Z,0.70
2018-01-29T07:36:19.895Z,0.93
2018-01-29T07:38:46.848Z,0.70
2018-01-29T07:41:13.766Z,1.60
2018-01-29T07:43:40.001Z,1.20
2018-01-29T07:46:06.964Z,1.27
2018-01-29T07:48:33.898Z,1.33
2018-01-29T07:51:00.153Z,0.80
2018-01-29T07:53:27.076Z,1.03
2018-01-29T07:55:54.036Z,1.43
2018-01-29T07:58:20.984Z,0.90
2018-01-29T08:00:47.940Z,0.77
2018-01-29T08:03:14.128Z,1.33
2018-01-29T08:05:40.349Z,0.80
2018-01-29T08:08:06.586Z,0.80
2018-01-29T08:10:32.804Z,0.80
2018-01-29T08:12:58.992Z,1.10
2018-01-29T08:15:25.208Z,3.13
2018-01-29T08:17:52.165Z,1.10
2018-01-29T08:20:18.408Z,0.70
2018-01-29T08:22:44.592Z,1.10
2018-01-29T08:25:11.526Z,0.83
2018-01-29T08:27:37.744Z,2.70
2018-01-29T08:30:03.947Z,2.10
2018-01-29T08:32:30.171Z,0.60
2018-01-29T08:34:56.370Z,1.13
2018-01-29T08:37:23.381Z,2.33
2018-01-29T08:39:49.575Z,2.20
2018-01-29T08:42:15.791Z,1.60
2018-01-29T08:44:41.993Z,3.63
2018-01-29T08:47:09.028Z,1.23
2018-01-29T08:49:35.220Z,1.53
2018-01-29T08:52:01.471Z,1.17
2018-01-29T08:54:27.656Z,1.30
2018-01-29T08:56:53.868Z,1.10
2018-01-29T08:59:20.792Z,2.17
2018-01-29T09:01:47.763Z,0.87
2018-01-29T09:04:13.950Z,1.37
2018-01-29T09:06:40.173Z,1.10
2018-01-29T09:09:06.364Z,1.50
2018-01-29T09:11:32.584Z,1.07
2018-01-29T09:13:58.772Z,3.13
2018-01-29T09:16:25.136Z,1.00
2018-01-29T09:18:52.069Z,2.20
2018-01-29T09:21:19.045Z,2.50
2018-01-29T09:23:45.260Z,2.60
2018-01-29T09:26:11.452Z,1.40
2018-01-29T09:28:37.669Z,1.40
2018-01-29T09:31:03.876Z,2.50
2018-01-29T09:33:30.092Z,2.00
2018-01-29T09:35:56.531Z,2.70
2018-01-29T09:38:22.752Z,1.70
2018-01-29T09:40:48.931Z,1.13
2018-01-29T09:43:15.165Z,1.33
2018-01-29T09:45:41.351Z,0.87
2018-01-29T09:48:07.595Z,3.80
2018-01-29T09:50:33.800Z,1.40
2018-01-29T09:53:00.160Z,1.57
2018-01-29T09:55:26.364Z,1.30
2018-01-29T09:57:52.549Z,1.57
2018-01-29T10:00:19.516Z,1.53
2018-01-29T10:02:45.724Z,1.27
2018-01-29T10:05:12.704Z,1.70
2018-01-29T10:33:23.519Z,1.57
2018-01-29T10:35:56.677Z,6.00
2018-01-29T10:38:29.235Z,1.67
2018-01-29T10:41:01.599Z,1.13
2018-01-29T10:43:34.804Z,1.33
2018-01-29T10:46:07.320Z,3.33
2018-01-29T10:48:40.134Z,2.50
2018-01-29T10:51:12.539Z,1.53
2018-01-29T10:53:45.776Z,1.47
2018-01-29T10:56:18.960Z,1.27
2018-01-29T10:58:51.565Z,2.47
2018-01-29T11:01:23.903Z,1.27
2018-01-29T11:03:56.464Z,3.30
2018-01-29T11:06:28.863Z,1.97
2018-01-29T11:09:01.283Z,4.60
2018-01-29T11:11:34.375Z,2.43
2018-01-29T11:14:07.024Z,3.63
2018-01-29T11:16:39.364Z,3.73
2018-01-29T11:19:11.868Z,4.50
2018-01-29T11:21:45.033Z,2.93
2018-01-29T11:24:17.573Z,5.10
2018-01-29T11:26:50.699Z,3.33
2018-01-29T11:29:23.912Z,1.93
2018-01-29T11:31:56.395Z,4.27
2018-01-29T11:34:28.890Z,1.90
2018-01-29T11:37:01.272Z,3.07
2018-01-29T11:39:33.840Z,1.57
2018-01-29T11:42:06.180Z,6.47
2018-01-29T11:44:39.339Z,3.50
2018-01-29T11:47:12.504Z,4.77
2018-01-29T11:49:44.960Z,2.07
2018-01-29T11:52:17.352Z,2.77
2018-01-29T11:54:49.776Z,1.87
2018-01-29T11:57:22.107Z,3.47
2018-01-29T11:59:55.212Z,2.07
2018-01-29T12:02:28.399Z,1.93
2018-01-29T12:05:01.047Z,3.30
2018-01-29T12:07:34.063Z,1.60
2018-01-29T12:10:06.401Z,2.17
2018-01-29T12:12:38.760Z,2.23
2018-01-29T12:15:11.428Z,4.73
2018-01-29T12:17:43.996Z,2.87
2018-01-29T12:20:16.387Z,2.30
2018-01-29T12:22:48.771Z,2.50
2018-01-29T12:25:21.459Z,6.77
2018-01-29T12:27:54.484Z,3.33
2018-01-29T12:30:26.957Z,6.97
2018-01-29T12:33:00.140Z,2.23
2018-01-29T12:35:32.563Z,3.43
2018-01-29T12:38:05.703Z,4.53
2018-01-29T12:40:38.987Z,3.07
2018-01-29T12:43:11.391Z,3.07
2018-01-29T12:45:43.848Z,3.27
2018-01-29T12:48:16.940Z,5.03
2018-01-29T12:50:50.293Z,5.07
2018-01-29T12:53:23.464Z,6.00
2018-01-29T12:55:55.888Z,4.80
2018-01-29T12:58:28.267Z,3.53
2018-01-29T13:01:00.651Z,6.37
2018-01-29T13:03:33.750Z,3.40
2018-01-29T13:06:06.860Z,2.80
2018-01-29T13:08:39.180Z,3.80
2018-01-29T13:11:11.557Z,3.70
2018-01-29T13:13:44.029Z,2.63
2018-01-29T13:16:17.191Z,3.73
2018-01-29T13:18:50.352Z,2.10
2018-01-29T13:21:23.580Z,4.23
2018-01-29T13:23:55.940Z,2.03
2018-01-29T13:26:28.712Z,4.30
2018-01-29T13:29:01.075Z,2.57
2018-01-29T13:31:33.524Z,1.90
2018-01-29T13:34:06.720Z,5.23
2018-01-29T13:36:39.132Z,6.30
2018-01-29T13:39:11.515Z,3.73
2018-01-29T13:41:45.423Z,2.07
2018-01-29T13:44:17.928Z,4.00
2018-01-29T13:46:50.423Z,3.80
2018-01-29T13:49:22.817Z,2.50
2018-01-29T13:51:56.055Z,3.47
2018-01-29T13:54:28.458Z,2.50
2018-01-29T13:57:00.844Z,3.30
2018-01-29T13:59:33.743Z,2.00
2018-01-29T14:02:06.968Z,3.90
2018-01-29T14:04:39.664Z,3.43
2018-01-29T14:07:12.727Z,7.40
2018-01-29T14:09:45.883Z,3.73
2018-01-29T14:12:18.423Z,7.20
2018-01-29T14:14:51.644Z,4.07
2018-01-29T14:17:24.872Z,2.80
2018-01-29T14:19:57.271Z,4.70
2018-01-29T14:22:29.704Z,3.57
2018-01-29T14:25:02.076Z,5.10
2018-01-29T14:27:41.669Z,19.97
2018-01-29T14:30:14.804Z,3.20
2018-01-29T14:32:47.920Z,2.70
2018-01-29T14:35:20.271Z,3.43
2018-01-29T14:37:53.475Z,4.93
2018-01-29T14:40:25.988Z,1.90
2018-01-29T14:42:58.404Z,2.40
2018-01-29T14:45:31.598Z,3.83
2018-01-29T14:48:04.151Z,2.70
2018-01-29T14:50:37.296Z,2.40
2018-01-29T14:53:09.815Z,2.03
2018-01-29T14:55:42.164Z,5.10
2018-01-29T14:58:14.617Z,4.27
2018-01-29T15:00:46.928Z,1.60
2018-01-29T15:03:19.419Z,7.73
2018-01-29T15:05:51.779Z,2.10
2018-01-29T15:08:25.000Z,2.50
2018-01-29T15:10:57.404Z,1.73
2018-01-29T15:13:29.956Z,2.67
2018-01-29T15:16:03.051Z,3.23
2018-01-29T15:18:35.520Z,7.53
2018-01-29T15:21:07.911Z,3.20
2018-01-29T15:23:41.114Z,5.10
2018-01-29T15:26:14.408Z,2.37
2018-01-29T15:28:47.628Z,5.03
2018-01-29T15:31:20.028Z,2.93
2018-01-29T15:33:53.188Z,3.50
2018-01-29T15:36:25.720Z,2.10
2018-01-29T15:38:58.848Z,3.63
2018-01-29T15:41:32.104Z,2.50
2018-01-29T15:44:05.222Z,2.67
2018-01-29T15:46:38.390Z,3.50
2018-01-29T15:49:10.723Z,6.87
2018-01-29T15:51:43.868Z,3.30
2018-01-29T15:54:16.275Z,6.00
2018-01-29T15:56:48.648Z,4.37
2018-01-29T15:59:21.848Z,2.20
2018-01-29T16:01:54.996Z,3.20
2018-01-29T16:04:27.456Z,2.30
2018-01-29T16:06:59.801Z,3.00
2018-01-29T16:09:32.227Z,4.63
2018-01-29T16:12:04.644Z,5.03
2018-01-29T16:14:37.167Z,4.00
2018-01-29T16:17:10.252Z,2.60
2018-01-29T16:19:42.603Z,6.83
2018-01-29T16:22:15.028Z,3.73
2018-01-29T16:24:47.381Z,4.47
2018-01-29T16:27:19.704Z,3.03
2018-01-29T16:29:52.135Z,2.97
2018-01-29T16:32:24.479Z,3.73
2018-01-29T16:34:57.049Z,2.43
2018-01-29T16:37:29.339Z,3.37
2018-01-29T16:40:02.567Z,3.17
2018-01-29T16:42:35.171Z,6.10
2018-01-29T16:45:07.867Z,2.47
2018-01-29T16:47:40.264Z,1.83
2018-01-29T16:50:13.041Z,4.50
2018-01-29T16:52:45.453Z,3.13
2018-01-29T16:55:18.831Z,1.97
2018-01-29T16:57:51.819Z,10.07
2018-01-29T17:00:25.084Z,1.43
2018-01-29T17:02:58.219Z,2.33
2018-01-29T17:05:30.760Z,2.67
2018-01-29T17:08:03.103Z,4.13
2018-01-29T17:10:35.704Z,3.30
2018-01-29T17:13:08.744Z,1.97
2018-01-29T17:15:41.308Z,9.40
2018-01-29T17:18:13.724Z,4.27
2018-01-29T17:20:46.118Z,1.90
2018-01-29T17:23:19.339Z,3.33
2018-01-29T17:25:51.685Z,2.83
2018-01-29T17:28:24.043Z,4.80
2018-01-29T17:30:56.440Z,2.63
2018-01-29T17:33:29.531Z,3.23
2018-01-29T17:36:02.061Z,3.33
2018-01-29T17:38:35.138Z,6.70
2018-01-29T17:41:08.392Z,2.83
2018-01-29T17:43:40.660Z,5.20
2018-01-29T17:46:13.800Z,4.03
2018-01-29T17:48:46.195Z,2.67
2018-01-29T17:51:18.733Z,4.20
2018-01-29T17:53:45.680Z,3.43
2018-01-29T17:56:12.612Z,2.93
2018-01-29T17:58:38.823Z,2.33
2018-01-29T18:01:05.030Z,7.20
2018-01-29T18:03:31.910Z,3.67
2018-01-29T18:05:58.133Z,4.37
2018-01-29T18:08:24.352Z,2.43
2018-01-29T18:10:51.401Z,5.70
2018-01-29T18:13:17.718Z,3.23
2018-01-29T18:15:43.900Z,2.20
2018-01-29T18:18:10.868Z,3.10
2018-01-29T18:20:37.056Z,2.87
2018-01-29T18:23:03.318Z,2.50
2018-01-29T18:25:29.505Z,4.80
2018-01-29T18:27:55.778Z,5.60
2018-01-29T18:30:22.232Z,1.90
2018-01-29T18:32:48.591Z,3.70
2018-01-29T18:35:14.842Z,4.07
2018-01-29T18:37:41.029Z,3.20
2018-01-29T18:40:07.299Z,2.90
2018-01-29T18:42:33.483Z,3.53
2018-01-29T18:45:00.368Z,3.37
2018-01-29T18:47:26.547Z,4.00
2018-01-29T18:49:52.751Z,4.13
2018-01-29T18:52:19.676Z,3.03
2018-01-29T18:54:45.951Z,4.43
2018-01-29T18:57:12.140Z,4.30
2018-01-29T18:59:39.445Z,3.83
2018-01-29T19:02:05.623Z,5.03
2018-01-29T19:04:32.715Z,3.60
2018-01-29T19:06:58.924Z,11.40
2018-01-29T19:09:25.140Z,1.93
2018-01-29T19:11:52.250Z,2.10
2018-01-29T19:14:18.501Z,1.83
2018-01-29T19:16:45.473Z,2.30
2018-01-29T19:19:11.692Z,4.00
2018-01-29T19:21:38.612Z,8.53
2018-01-29T19:24:05.075Z,3.43
2018-01-29T19:26:32.009Z,4.00
2018-01-29T19:28:59.006Z,3.93
2018-01-29T19:31:25.270Z,3.13
2018-01-29T19:33:51.526Z,2.33
2018-01-29T19:36:18.476Z,1.63
2018-01-29T19:38:52.547Z,1.53
2018-01-29T19:41:18.801Z,4.47
2018-01-29T19:43:45.844Z,3.03
2018-01-29T19:46:12.107Z,3.00
2018-01-29T19:48:38.292Z,4.10
2018-01-29T19:51:04.579Z,2.23
2018-01-29T19:53:30.807Z,2.87
2018-01-29T19:55:57.176Z,9.47
2018-01-29T19:58:23.411Z,3.53
2018-01-29T20:00:49.700Z,2.90
2018-01-29T20:03:15.884Z,12.10
2018-01-29T20:05:42.076Z,6.40
2018-01-29T20:08:08.392Z,1.73
2018-01-29T20:10:34.601Z,2.10
2018-01-29T20:13:00.883Z,2.37
2018-01-29T20:15:27.964Z,3.67
2018-01-29T20:17:54.224Z,2.67
2018-01-29T20:20:20.459Z,2.63
2018-01-29T20:22:46.676Z,2.40
2018-01-29T20:25:12.873Z,4.63
2018-01-29T20:27:39.896Z,4.23
2018-01-29T20:30:06.199Z,2.63
2018-01-29T20:32:32.467Z,3.03
2018-01-29T20:34:58.699Z,4.23
2018-01-29T20:37:24.963Z,2.63
2018-01-29T20:39:51.200Z,1.67
2018-01-29T20:42:17.488Z,3.80
2018-01-29T20:44:43.731Z,3.63
2018-01-29T20:47:10.738Z,2.03
2018-01-29T20:49:36.927Z,2.97
2018-01-29T20:52:03.216Z,3.00
2018-01-29T20:54:29.437Z,2.90
2018-01-29T20:56:55.742Z,2.57
2018-01-29T20:59:21.924Z,3.20
2018-01-29T21:01:48.973Z,1.83
2018-01-29T21:04:15.942Z,4.33
2018-01-29T21:06:42.250Z,2.80
2018-01-29T21:09:09.236Z,2.83
2018-01-29T21:11:35.500Z,4.63
2018-01-29T21:14:01.803Z,2.97
2018-01-29T21:16:28.882Z,1.40
2018-01-29T21:18:55.071Z,0.80
2018-01-29T21:21:21.307Z,1.07
2018-01-29T21:23:47.587Z,1.87
2018-01-29T21:26:13.813Z,1.43
2018-01-29T21:28:40.019Z,2.80
2018-01-29T21:31:06.247Z,10.10
2018-01-29T21:33:32.510Z,2.70
2018-01-29T21:35:58.688Z,3.23
2018-01-29T21:38:24.899Z,6.63
2018-01-29T21:40:51.151Z,1.97
2018-01-29T21:43:17.455Z,3.20
2018-01-29T21:45:43.691Z,0.60
2018-01-29T21:48:09.876Z,0.90
2018-01-29T21:50:36.901Z,1.80
2018-01-29T21:53:03.088Z,0.50
2018-01-29T21:55:29.359Z,0.60
2018-01-29T21:57:56.343Z,0.77
2018-01-29T22:00:23.360Z,0.70
2018-01-29T22:02:49.547Z,11.33
2018-01-29T22:05:15.797Z,0.53
2018-01-29T22:07:42.035Z,0.60
2018-01-29T22:10:08.247Z,1.03
2018-01-29T22:12:34.475Z,0.57
2018-01-29T22:15:00.720Z,0.60
2018-01-29T22:17:27.424Z,0.53
2018-01-29T22:19:53.837Z,0.60
2018-01-29T22:22:20.816Z,0.60
2018-01-29T22:24:46.995Z,0.70
2018-01-29T22:27:14.227Z,0.60
2018-01-29T22:29:40.458Z,0.63
2018-01-29T22:32:06.735Z,0.60
2018-01-29T22:34:33.728Z,0.70
2018-01-29T22:36:59.952Z,1.13
2018-01-29T22:39:26.478Z,0.60
2018-01-29T22:41:52.729Z,0.87
2018-01-29T22:44:18.917Z,0.73
2018-01-29T22:46:45.136Z,1.83
2018-01-29T22:49:12.116Z,2.00
2018-01-29T22:51:38.331Z,0.60
2018-01-29T22:54:04.563Z,2.63
2018-01-29T22:56:30.887Z,2.03
2018-01-29T22:58:57.077Z,0.60
2018-01-29T23:01:23.335Z,0.67
2018-01-29T23:03:50.302Z,0.73
2018-01-29T23:06:16.512Z,0.60
2018-01-29T23:08:42.703Z,1.80
2018-01-29T23:11:08.920Z,0.70
2018-01-29T23:13:35.112Z,4.30
2018-01-29T23:16:01.359Z,0.60
2018-01-29T23:18:27.549Z,0.63
2018-01-29T23:20:54.508Z,0.60
2018-01-29T23:23:20.691Z,0.80
2018-01-29T23:25:46.937Z,1.10
2018-01-29T23:28:13.864Z,1.17
2018-01-29T23:30:40.093Z,0.60
2018-01-29T23:33:06.351Z,0.73
2018-01-29T23:35:33.274Z,1.90
2018-01-29T23:37:59.492Z,1.73
2018-01-29T23:40:25.683Z,7.37
2018-01-29T23:42:51.897Z,1.63
2018-01-29T23:45:18.140Z,9.47
2018-01-29T23:47:44.324Z,3.43
2018-01-29T23:50:10.516Z,1.67
2018-01-29T23:52:43.704Z,0.60
2018-01-29T23:55:09.900Z,1.33
2018-01-29T23:57:36.112Z,1.50
